Time;durP1;ratioP1;P1;durP2;ratioP2;P2;SDS_P1;SDS_P2;PMS_P1;PMS_P2;Temp;Humidity;BMP_temperature;BMP_pressure;BME280_temperature;BME280_humidity;BME280_pressure;Samples;Min_cycle;Max_cycle;Signal;HPM_P1;HPM_P2
2023/06/07 00:00:28;;;;;;;;;;;23.90;59.40;;;;;;5047069;28;42963;-79
2023/06/07 00:02:57;;;;;;;;;;;24.00;59.00;;;;;;5047045;28;42812;-79
2023/06/07 00:05:23;;;;;;;;;;;24.10;58.80;;;;;;5046886;28;43306;-79
2023/06/07 00:07:48;;;;;;;;;;;24.00;58.60;;;;;;5047260;28;43413;-79
2023/06/07 00:10:17;;;;;;;;;;;24.00;58.70;;;;;;5045080;28;43269;-79
2023/06/07 00:12:42;;;;;;;;;;;24.00;58.00;;;;;;5047409;28;42954;-79
2023/06/07 00:15:08;;;;;;;;;;;24.10;58.10;;;;;;5047398;28;42929;-78
2023/06/07 00:17:37;;;;;;;;;;;24.10;58.00;;;;;;5047059;28;43060;-78
2023/06/07 00:20:04;;;;;;;;;;;24.10;58.00;;;;;;5045687;28;43425;-78
2023/06/07 00:22:30;;;;;;;;;;;24.10;57.90;;;;;;5046163;28;42894;-79
2023/06/07 00:24:55;;;;;;;;;;;24.00;58.30;;;;;;5040371;28;43113;-79
2023/06/07 00:27:21;;;;;;;;;;;23.90;58.20;;;;;;5046987;28;43048;-79
2023/06/07 00:29:49;;;;;;;;;;;23.90;58.40;;;;;;5046396;28;43430;-82
2023/06/07 00:32:20;;;;;;;;;;;23.90;58.90;;;;;;5046924;28;42961;-80
2023/06/07 00:34:45;;;;;;;;;;;23.90;59.10;;;;;;5046778;28;42955;-78
2023/06/07 00:37:11;;;;;;;;;;;23.90;58.90;;;;;;5046959;28;42990;-79
2023/06/07 00:39:37;;;;;;;;;;;24.00;58.40;;;;;;5046575;28;43037;-78
2023/06/07 00:42:05;;;;;;;;;;;24.00;57.70;;;;;;5046636;28;43062;-79
2023/06/07 00:44:32;;;;;;;;;;;24.00;58.50;;;;;;5045165;28;43665;-79
2023/06/07 00:46:58;;;;;;;;;;;23.90;58.40;;;;;;5045978;28;42973;-78
2023/06/07 00:49:26;;;;;;;;;;;24.00;58.70;;;;;;5040438;28;43463;-79
2023/06/07 00:51:51;;;;;;;;;;;24.10;58.20;;;;;;5046675;28;42851;-79
2023/06/07 00:54:17;;;;;;;;;;;24.10;58.00;;;;;;5038727;28;42929;-79
2023/06/07 00:56:44;;;;;;;;;;;24.00;58.20;;;;;;5044241;28;43018;-80
2023/06/07 00:59:09;;;;;;;;;;;24.00;58.50;;;;;;5045409;28;43039;-79
2023/06/07 01:01:35;;;;;;;;;;;23.90;58.10;;;;;;5046377;28;42977;-80
2023/06/07 01:04:01;;;;;;;;;;;23.90;58.80;;;;;;5037019;28;43462;-78
2023/06/07 01:06:26;;;;;;;;;;;23.90;58.20;;;;;;5037453;28;42936;-78
2023/06/07 01:08:52;;;;;;;;;;;23.90;58.60;;;;;;5042277;28;43575;-93
2023/06/07 01:11:20;;;;;;;;;;;24.00;58.50;;;;;;5041767;28;43041;-78
2023/06/07 01:13:47;;;;;;;;;;;24.00;58.40;;;;;;5045827;28;43556;-78
2023/06/07 01:16:12;;;;;;;;;;;23.90;58.60;;;;;;5045915;28;42924;-78
2023/06/07 01:18:38;;;;;;;;;;;23.90;59.00;;;;;;5039379;28;43003;-84
2023/06/07 01:21:05;;;;;;;;;;;23.90;58.90;;;;;;5044525;28;43654;-78
2023/06/07 01:23:31;;;;;;;;;;;24.00;58.70;;;;;;5043208;28;43517;-78
2023/06/07 01:26:05;;;;;;;;;;;23.90;58.60;;;;;;5043014;28;43018;-78
2023/06/07 01:28:33;;;;;;;;;;;23.90;58.60;;;;;;5042609;28;43863;-79
2023/06/07 01:31:00;;;;;;;;;;;23.90;58.50;;;;;;5045078;28;42891;-79
2023/06/07 01:33:26;;;;;;;;;;;24.00;58.20;;;;;;5042232;28;42993;-78
2023/06/07 01:35:53;;;;;;;;;;;24.00;57.90;;;;;;5044786;28;43165;-78
2023/06/07 01:38:20;;;;;;;;;;;24.00;57.90;;;;;;5045611;28;42975;-78
2023/06/07 01:40:46;;;;;;;;;;;24.10;57.70;;;;;;5045368;28;42837;-78
2023/06/07 01:43:13;;;;;;;;;;;24.10;57.60;;;;;;5045350;28;43398;-78
2023/06/07 01:45:39;;;;;;;;;;;24.10;57.80;;;;;;5045690;28;43036;-78
2023/06/07 01:48:04;;;;;;;;;;;24.00;58.10;;;;;;5046517;28;44417;-78
2023/06/07 01:50:30;;;;;;;;;;;24.00;58.00;;;;;;5045265;28;43157;-79
2023/06/07 01:52:56;;;;;;;;;;;24.00;57.90;;;;;;5045608;28;43411;-81
2023/06/07 01:55:22;;;;;;;;;;;23.90;57.60;;;;;;5045788;28;42943;-79
2023/06/07 01:57:52;;;;;;;;;;;23.90;58.30;;;;;;5045166;28;44822;-80
2023/06/07 02:00:33;;;;;;;;;;;23.90;58.30;;;;;;5047330;28;43025;-80
2023/06/07 02:03:01;;;;;;;;;;;23.90;58.10;;;;;;5056497;28;43107;-80
2023/06/07 02:05:37;;;;;;;;;;;23.90;58.20;;;;;;5045112;28;42943;-79
2023/06/07 02:08:12;;;;;;;;;;;23.90;58.10;;;;;;5045209;28;43559;-87
2023/06/07 02:10:39;;;;;;;;;;;24.00;57.70;;;;;;5044790;28;42931;-78
2023/06/07 02:13:05;;;;;;;;;;;24.00;57.40;;;;;;5026815;28;42913;-78
2023/06/07 02:15:32;;;;;;;;;;;24.00;57.30;;;;;;5045562;28;43021;-78
2023/06/07 02:17:58;;;;;;;;;;;24.00;57.80;;;;;;5044906;28;43204;-89
2023/06/07 02:20:27;;;;;;;;;;;24.00;57.60;;;;;;5044487;28;43019;-90
2023/06/07 02:22:53;;;;;;;;;;;24.00;57.50;;;;;;5035645;28;42985;-78
2023/06/07 02:25:19;;;;;;;;;;;24.00;57.00;;;;;;5024869;28;43124;-79
2023/06/07 02:27:44;;;;;;;;;;;24.10;57.90;;;;;;5027696;28;42856;-82
2023/06/07 02:30:10;;;;;;;;;;;24.10;57.30;;;;;;5007419;28;43080;-85
2023/06/07 02:32:36;;;;;;;;;;;24.10;57.50;;;;;;5026264;28;43058;-93
2023/06/07 02:35:03;;;;;;;;;;;24.10;56.90;;;;;;5026745;28;43116;-78
2023/06/07 02:37:29;;;;;;;;;;;24.10;57.40;;;;;;5027348;28;42933;-94
2023/06/07 02:39:54;;;;;;;;;;;24.10;57.50;;;;;;5010907;28;43093;-78
2023/06/07 02:42:20;;;;;;;;;;;24.20;57.40;;;;;;5027631;28;42906;-94
2023/06/07 02:44:45;;;;;;;;;;;24.10;57.30;;;;;;5026259;28;42833;-79
2023/06/07 02:47:11;;;;;;;;;;;24.10;56.80;;;;;;5027877;28;42913;-91
2023/06/07 02:49:36;;;;;;;;;;;24.10;57.50;;;;;;5013816;28;42964;-78
2023/06/07 02:52:02;;;;;;;;;;;24.00;57.60;;;;;;5022654;28;43979;-79
2023/06/07 02:54:27;;;;;;;;;;;24.00;57.70;;;;;;5001191;28;43189;-80
2023/06/07 02:59:41;;;;;;;;;;;24.00;57.70;;;;;;5013475;28;43023;-80
2023/06/07 03:02:07;;;;;;;;;;;24.00;57.80;;;;;;5023562;28;43890;-78
2023/06/07 03:04:33;;;;;;;;;;;24.00;57.30;;;;;;5023635;28;42909;-79
2023/06/07 03:06:58;;;;;;;;;;;24.00;57.30;;;;;;5024173;28;42999;-79
2023/06/07 03:09:24;;;;;;;;;;;24.10;57.60;;;;;;5023106;28;42885;-79
2023/06/07 03:11:50;;;;;;;;;;;24.10;57.40;;;;;;5022691;28;42997;-79
2023/06/07 03:14:18;;;;;;;;;;;24.00;57.50;;;;;;5023445;28;43000;-78
2023/06/07 03:16:44;;;;;;;;;;;24.00;57.30;;;;;;5023859;28;43369;-79
2023/06/07 03:19:10;;;;;;;;;;;24.10;56.90;;;;;;5024004;28;43031;-79
2023/06/07 03:21:37;;;;;;;;;;;24.10;57.30;;;;;;5022268;28;43592;-78
2023/06/07 03:24:23;;;;;;;;;;;24.10;57.20;;;;;;5050581;28;43193;-78
2023/06/07 03:26:48;;;;;;;;;;;24.10;56.60;;;;;;5062089;28;43565;-80
2023/06/07 03:29:14;;;;;;;;;;;24.10;57.10;;;;;;5063694;28;42943;-79
2023/06/07 03:31:40;;;;;;;;;;;24.10;56.80;;;;;;5063345;28;43076;-78
2023/06/07 03:34:05;;;;;;;;;;;24.10;57.20;;;;;;5063891;28;42873;-79
2023/06/07 03:36:31;;;;;;;;;;;24.10;56.60;;;;;;5063660;28;43679;-77
2023/06/07 03:38:57;;;;;;;;;;;24.00;56.60;;;;;;5062998;28;43049;-78
2023/06/07 03:41:22;;;;;;;;;;;24.10;57.20;;;;;;5063169;28;43082;-79
2023/06/07 03:43:48;;;;;;;;;;;24.10;56.60;;;;;;5063156;28;42904;-79
2023/06/07 03:46:13;;;;;;;;;;;24.10;57.30;;;;;;5062599;28;42856;-77
2023/06/07 03:48:39;;;;;;;;;;;24.10;57.30;;;;;;5063895;28;43006;-78
2023/06/07 03:51:05;;;;;;;;;;;24.10;57.30;;;;;;5062331;28;43341;-79
2023/06/07 03:53:31;;;;;;;;;;;24.10;57.20;;;;;;5056309;28;42965;-79
2023/06/07 03:55:57;;;;;;;;;;;24.00;57.20;;;;;;5060008;28;43862;-79
2023/06/07 03:58:24;;;;;;;;;;;24.00;57.30;;;;;;5063379;28;43021;-79
2023/06/07 04:00:51;;;;;;;;;;;24.00;57.40;;;;;;5062260;28;43014;-79
2023/06/07 04:03:59;;;;;;;;;;;24.00;57.50;;;;;;5055735;28;43027;-79
2023/06/07 04:06:08;;;;;;;;;;;24.00;57.60;;;;;;5043032;28;44107;-79
2023/06/07 04:08:37;;;;;;;;;;;24.00;57.60;;;;;;5059697;28;42896;-79
2023/06/07 04:11:03;;;;;;;;;;;24.00;57.00;;;;;;5060634;28;43252;-78
2023/06/07 04:13:31;;;;;;;;;;;24.00;57.60;;;;;;5058006;28;43126;-80
2023/06/07 04:15:56;;;;;;;;;;;23.90;57.00;;;;;;5055637;28;43390;-79
2023/06/07 04:18:22;;;;;;;;;;;24.00;57.70;;;;;;5061282;28;42915;-81
2023/06/07 04:20:47;;;;;;;;;;;24.00;57.50;;;;;;5057928;28;43969;-80
2023/06/07 04:23:13;;;;;;;;;;;24.00;57.40;;;;;;5065703;28;43192;-82
2023/06/07 04:25:39;;;;;;;;;;;23.90;57.00;;;;;;5066524;28;43098;-82
2023/06/07 04:28:08;;;;;;;;;;;24.00;57.70;;;;;;5065794;28;42927;-78
2023/06/07 04:30:36;;;;;;;;;;;24.00;57.60;;;;;;5063012;28;43817;-83
2023/06/07 04:33:09;;;;;;;;;;;24.00;57.30;;;;;;5061196;28;42977;-81
2023/06/07 04:35:41;;;;;;;;;;;24.00;57.10;;;;;;5056855;28;43061;-80
2023/06/07 04:38:11;;;;;;;;;;;24.10;57.50;;;;;;5062308;28;42908;-80
2023/06/07 04:40:41;;;;;;;;;;;24.00;57.60;;;;;;5046434;28;43624;-80
2023/06/07 04:43:07;;;;;;;;;;;24.10;57.60;;;;;;5064837;28;43072;-81
2023/06/07 04:45:33;;;;;;;;;;;24.10;57.60;;;;;;5066714;28;43416;-81
2023/06/07 04:47:58;;;;;;;;;;;23.90;57.20;;;;;;5064037;28;42998;-80
2023/06/07 04:50:24;;;;;;;;;;;24.10;57.80;;;;;;5065055;28;43132;-80
2023/06/07 04:52:50;;;;;;;;;;;24.10;57.90;;;;;;5062309;28;42946;-80
2023/06/07 04:55:16;;;;;;;;;;;24.10;58.20;;;;;;5060391;28;43081;-81
2023/06/07 04:57:45;;;;;;;;;;;24.00;58.30;;;;;;5064747;28;42940;-81
2023/06/07 05:00:14;;;;;;;;;;;24.00;58.40;;;;;;5064710;28;42946;-80
2023/06/07 05:02:43;;;;;;;;;;;24.10;58.40;;;;;;5056736;28;42919;-81
2023/06/07 05:05:09;;;;;;;;;;;24.10;59.00;;;;;;5054818;28;43033;-80
2023/06/07 05:07:34;;;;;;;;;;;24.00;58.50;;;;;;5053184;28;43176;-80
2023/06/07 05:10:00;;;;;;;;;;;24.00;58.40;;;;;;5058568;28;44190;-78
2023/06/07 05:12:25;;;;;;;;;;;24.00;58.50;;;;;;5061619;28;43153;-78
2023/06/07 05:14:51;;;;;;;;;;;24.00;58.70;;;;;;5063424;28;43007;-78
2023/06/07 05:17:19;;;;;;;;;;;23.90;58.30;;;;;;5063154;28;43273;-79
2023/06/07 05:19:44;;;;;;;;;;;23.90;58.40;;;;;;5059249;28;43300;-79
2023/06/07 05:22:10;;;;;;;;;;;23.90;59.00;;;;;;5061051;28;43207;-79
2023/06/07 05:24:35;;;;;;;;;;;23.90;59.10;;;;;;5049598;28;43203;-79
2023/06/07 05:27:01;;;;;;;;;;;23.80;59.20;;;;;;5057508;28;43212;-79
2023/06/07 05:29:26;;;;;;;;;;;23.70;59.50;;;;;;5058697;28;43176;-79
2023/06/07 05:31:52;;;;;;;;;;;23.60;60.30;;;;;;5065330;28;43035;-79
2023/06/07 05:34:17;;;;;;;;;;;23.80;59.90;;;;;;5064617;28;43092;-79
2023/06/07 05:36:43;;;;;;;;;;;23.80;59.70;;;;;;5065207;28;43028;-79
2023/06/07 05:39:09;;;;;;;;;;;23.80;60.00;;;;;;5056440;28;43228;-78
2023/06/07 05:41:38;;;;;;;;;;;23.70;59.40;;;;;;5048512;28;42945;-79
2023/06/07 05:44:03;;;;;;;;;;;23.70;59.80;;;;;;5050706;28;44571;-79
2023/06/07 05:46:29;;;;;;;;;;;23.80;59.90;;;;;;5056001;28;43592;-79
2023/06/07 05:48:55;;;;;;;;;;;23.00;59.60;;;;;;5063789;28;43267;-79
2023/06/07 05:51:24;;;;;;;;;;;23.70;59.30;;;;;;5071442;28;42995;-79
2023/06/07 05:54:18;;;;;;;;;;;23.80;59.90;;;;;;5068029;28;42946;-79
2023/06/07 05:56:42;;;;;;;;;;;23.80;60.00;;;;;;5056542;28;42848;-80
2023/06/07 05:59:08;;;;;;;;;;;23.70;60.20;;;;;;5065391;28;42907;-79
2023/06/07 06:01:34;;;;;;;;;;;23.70;60.20;;;;;;5065073;28;43852;-79
2023/06/07 06:04:01;;;;;;;;;;;23.70;60.30;;;;;;5068432;28;42976;-78
2023/06/07 06:06:26;;;;;;;;;;;24.00;60.00;;;;;;5065876;28;42970;-80
2023/06/07 06:08:52;;;;;;;;;;;23.60;60.50;;;;;;5062725;28;43549;-79
2023/06/07 06:11:17;;;;;;;;;;;23.60;60.00;;;;;;5066836;28;42981;-79
2023/06/07 06:13:43;;;;;;;;;;;23.70;60.80;;;;;;5071111;28;43604;-79
2023/06/07 06:16:12;;;;;;;;;;;23.70;60.90;;;;;;5073112;28;43096;-79
2023/06/07 06:18:37;;;;;;;;;;;23.70;60.80;;;;;;5045343;28;43010;-78
2023/06/07 06:21:03;;;;;;;;;;;23.60;60.40;;;;;;5061310;28;42991;-78
2023/06/07 06:23:29;;;;;;;;;;;23.70;60.60;;;;;;5055862;28;44123;-79
2023/06/07 06:25:54;;;;;;;;;;;23.60;60.60;;;;;;5044326;28;42967;-79
2023/06/07 06:28:21;;;;;;;;;;;23.60;60.60;;;;;;5053746;28;42983;-80
2023/06/07 06:30:46;;;;;;;;;;;23.60;60.70;;;;;;5038376;28;42987;-79
2023/06/07 06:33:12;;;;;;;;;;;23.60;60.60;;;;;;5061545;28;43698;-79
2023/06/07 06:35:38;;;;;;;;;;;23.60;60.60;;;;;;5061772;28;42989;-79
2023/06/07 06:38:03;;;;;;;;;;;23.60;61.30;;;;;;5054486;28;43530;-80
2023/06/07 06:40:29;;;;;;;;;;;23.60;61.60;;;;;;5049245;28;42896;-82
2023/06/07 06:42:55;;;;;;;;;;;23.60;61.70;;;;;;5062197;28;43002;-80
2023/06/07 06:45:20;;;;;;;;;;;23.60;61.10;;;;;;5062802;28;43002;-84
2023/06/07 06:47:46;;;;;;;;;;;23.50;61.10;;;;;;5063869;28;43621;-84
2023/06/07 06:50:12;;;;;;;;;;;23.50;61.10;;;;;;5055699;28;43008;-83
2023/06/07 06:52:41;;;;;;;;;;;23.60;61.80;;;;;;5060927;28;43567;-83
2023/06/07 06:55:07;;;;;;;;;;;23.60;61.00;;;;;;5042508;28;43068;-80
2023/06/07 06:57:32;;;;;;;;;;;23.60;61.60;;;;;;5061981;28;43453;-81
2023/06/07 06:59:58;;;;;;;;;;;23.60;61.20;;;;;;5061430;28;43166;-81
2023/06/07 07:02:24;;;;;;;;;;;23.60;61.30;;;;;;5063080;28;43561;-86
2023/06/07 07:04:50;;;;;;;;;;;23.70;61.30;;;;;;5062143;28;43081;-82
2023/06/07 07:07:17;;;;;;;;;;;23.70;61.30;;;;;;5056185;28;43038;-81
2023/06/07 07:09:43;;;;;;;;;;;23.70;61.20;;;;;;5042176;28;43117;-81
2023/06/07 07:12:12;;;;;;;;;;;23.70;61.80;;;;;;5060297;28;42937;-81
2023/06/07 07:14:37;;;;;;;;;;;23.70;61.80;;;;;;5063675;28;42923;-80
2023/06/07 07:17:03;;;;;;;;;;;23.70;61.10;;;;;;5063874;28;43255;-81
2023/06/07 07:19:28;;;;;;;;;;;23.70;61.60;;;;;;5063189;28;42951;-81
2023/06/07 07:21:54;;;;;;;;;;;23.70;61.10;;;;;;5063410;28;42946;-81
2023/06/07 07:24:19;;;;;;;;;;;23.70;61.80;;;;;;5063509;28;43156;-80
2023/06/07 07:26:45;;;;;;;;;;;23.70;61.80;;;;;;5064126;28;43006;-81
2023/06/07 07:29:11;;;;;;;;;;;23.70;61.60;;;;;;5064044;28;42972;-81
2023/06/07 07:31:37;;;;;;;;;;;23.70;61.60;;;;;;5063934;28;43630;-81
2023/06/07 07:34:03;;;;;;;;;;;23.70;61.70;;;;;;5064549;28;42958;-80
2023/06/07 07:36:28;;;;;;;;;;;23.70;61.70;;;;;;5064618;28;42821;-81
2023/06/07 07:38:54;;;;;;;;;;;23.80;61.90;;;;;;5063858;28;42812;-80
2023/06/07 07:41:20;;;;;;;;;;;23.70;61.30;;;;;;5063366;28;44097;-80
2023/06/07 07:43:45;;;;;;;;;;;23.80;62.00;;;;;;5063916;28;43125;-81
2023/06/07 07:46:12;;;;;;;;;;;23.80;62.00;;;;;;5063549;28;43078;-80
2023/06/07 07:48:38;;;;;;;;;;;23.70;61.30;;;;;;5064039;28;42963;-80
2023/06/07 07:51:03;;;;;;;;;;;23.80;62.30;;;;;;5063942;28;42970;-81
2023/06/07 07:53:29;;;;;;;;;;;23.80;62.30;;;;;;5064429;28;42974;-80
2023/06/07 07:55:55;;;;;;;;;;;23.80;62.40;;;;;;5063351;28;43814;-80
2023/06/07 07:58:20;;;;;;;;;;;23.80;61.80;;;;;;5065986;28;42994;-80
2023/06/07 08:00:46;;;;;;;;;;;23.80;62.40;;;;;;5067623;28;42942;-81
2023/06/07 08:03:21;;;;;;;;;;;23.80;62.30;;;;;;5067086;28;42912;-81
2023/06/07 08:05:47;;;;;;;;;;;23.80;62.30;;;;;;5062723;28;42990;-80
2023/06/07 08:08:14;;;;;;;;;;;23.80;62.50;;;;;;5056424;28;42903;-81
2023/06/07 08:10:40;;;;;;;;;;;23.80;62.30;;;;;;5066105;28;43833;-81
2023/06/07 08:13:07;;;;;;;;;;;23.80;62.40;;;;;;5067249;28;42907;-86
2023/06/07 08:15:33;;;;;;;;;;;23.80;62.30;;;;;;5067542;28;42857;-81
2023/06/07 08:17:58;;;;;;;;;;;23.80;62.10;;;;;;5067666;28;42993;-83
2023/06/07 08:20:24;;;;;;;;;;;23.80;62.00;;;;;;5066916;28;42987;-81
2023/06/07 08:22:56;;;;;;;;;;;23.80;61.20;;;;;;5066764;28;43114;-81
2023/06/07 08:25:21;;;;;;;;;;;23.90;61.70;;;;;;5067361;28;42962;-83
2023/06/07 08:27:47;;;;;;;;;;;23.80;61.80;;;;;;5067299;28;42969;-80
2023/06/07 08:30:13;;;;;;;;;;;23.80;61.70;;;;;;5067050;28;42986;-80
2023/06/07 08:32:39;;;;;;;;;;;23.80;62.10;;;;;;5067550;28;43222;-80
2023/06/07 08:35:05;;;;;;;;;;;23.80;61.90;;;;;;5067866;28;42931;-81
2023/06/07 08:37:30;;;;;;;;;;;23.80;61.80;;;;;;5067394;28;43163;-81
2023/06/07 08:39:55;;;;;;;;;;;23.80;62.90;;;;;;5066931;28;43671;-80
2023/06/07 08:42:21;;;;;;;;;;;23.80;62.50;;;;;;5067418;28;43173;-81
2023/06/07 08:44:47;;;;;;;;;;;23.80;62.40;;;;;;5066974;28;42968;-80
2023/06/07 08:47:13;;;;;;;;;;;23.80;62.70;;;;;;5067442;28;43522;-81
2023/06/07 08:49:39;;;;;;;;;;;23.90;62.60;;;;;;5066511;28;43544;-80
2023/06/07 08:52:07;;;;;;;;;;;23.90;62.60;;;;;;5048476;28;42945;-81
2023/06/07 08:54:41;;;;;;;;;;;23.90;62.60;;;;;;5066099;28;43669;-81
2023/06/07 08:57:07;;;;;;;;;;;23.80;62.00;;;;;;5066519;28;42939;-80
2023/06/07 08:59:33;;;;;;;;;;;23.90;62.40;;;;;;5067124;28;43614;-80
2023/06/07 09:01:58;;;;;;;;;;;23.90;62.30;;;;;;5054035;28;42947;-81
2023/06/07 09:04:24;;;;;;;;;;;23.90;62.30;;;;;;5066724;28;42972;-80
2023/06/07 09:06:51;;;;;;;;;;;23.90;62.20;;;;;;5066399;28;43022;-81
2023/06/07 09:09:19;;;;;;;;;;;23.90;62.30;;;;;;5052984;28;43009;-81
2023/06/07 09:11:48;;;;;;;;;;;23.90;62.20;;;;;;5047927;28;42932;-81
2023/06/07 09:14:14;;;;;;;;;;;23.90;61.70;;;;;;5066481;28;43223;-80
2023/06/07 09:16:55;;;;;;;;;;;23.90;62.30;;;;;;5066173;28;42912;-81
2023/06/07 09:19:34;;;;;;;;;;;23.90;62.30;;;;;;5066588;28;43837;-80
2023/06/07 09:22:01;;;;;;;;;;;23.90;62.10;;;;;;5066218;28;43175;-81
2023/06/07 09:24:30;;;;;;;;;;;23.90;62.40;;;;;;5066400;28;43039;-81
2023/06/07 09:26:56;;;;;;;;;;;23.90;62.60;;;;;;5066220;28;42940;-80
2023/06/07 09:29:21;;;;;;;;;;;23.90;62.00;;;;;;5066394;28;42964;-81
2023/06/07 09:31:47;;;;;;;;;;;23.90;62.30;;;;;;5065723;28;43527;-81
2023/06/07 09:34:23;;;;;;;;;;;24.00;62.50;;;;;;5065816;28;42874;-81
2023/06/07 09:36:57;;;;;;;;;;;24.00;62.40;;;;;;5053507;28;42960;-81
2023/06/07 09:39:24;;;;;;;;;;;24.00;62.40;;;;;;5065796;28;43816;-82
2023/06/07 09:41:50;;;;;;;;;;;23.90;62.50;;;;;;5066401;28;42989;-81
2023/06/07 09:44:30;;;;;;;;;;;24.00;62.30;;;;;;5065594;28;43124;-80
2023/06/07 09:46:57;;;;;;;;;;;24.00;61.90;;;;;;5066440;28;43193;-81
2023/06/07 09:49:31;;;;;;;;;;;23.90;62.40;;;;;;5065817;28;42919;-81
2023/06/07 09:51:57;;;;;;;;;;;24.00;62.40;;;;;;5066260;28;43155;-81
2023/06/07 09:54:39;;;;;;;;;;;24.00;62.70;;;;;;5065558;28;43493;-81
2023/06/07 09:57:06;;;;;;;;;;;24.00;62.80;;;;;;5065593;28;43165;-81
2023/06/07 09:59:32;;;;;;;;;;;24.00;62.90;;;;;;5065706;28;43494;-80
2023/06/07 10:01:58;;;;;;;;;;;24.00;62.80;;;;;;5065704;28;42962;-80
2023/06/07 10:04:23;;;;;;;;;;;24.00;62.90;;;;;;5065558;28;43536;-83
2023/06/07 10:06:51;;;;;;;;;;;24.00;62.80;;;;;;5065328;28;43030;-81
2023/06/07 10:09:17;;;;;;;;;;;24.00;63.10;;;;;;5053068;28;43783;-79
2023/06/07 10:12:01;;;;;;;;;;;23.90;63.00;;;;;;5065289;28;42982;-82
2023/06/07 10:14:29;;;;;;;;;;;24.00;62.30;;;;;;5065301;28;43465;-83
2023/06/07 10:16:57;;;;;;;;;;;24.00;62.80;;;;;;5065081;28;43194;-83
2023/06/07 10:19:29;;;;;;;;;;;24.10;61.40;;;;;;5040902;28;43725;-84
2023/06/07 10:21:56;;;;;;;;;;;24.00;62.10;;;;;;5061855;28;42942;-85
2023/06/07 10:24:24;;;;;;;;;;;24.10;61.30;;;;;;5055317;28;43030;-82
2023/06/07 10:26:52;;;;;;;;;;;24.00;61.40;;;;;;5055487;28;42964;-83
2023/06/07 10:29:31;;;;;;;;;;;24.00;61.40;;;;;;5057335;28;42857;-84
2023/06/07 10:32:26;;;;;;;;;;;24.00;62.10;;;;;;5065069;28;42894;-84
2023/06/07 10:34:54;;;;;;;;;;;24.00;61.90;;;;;;5037818;28;43276;-85
2023/06/07 10:37:20;;;;;;;;;;;24.00;61.90;;;;;;5064472;28;42896;-84
2023/06/07 10:39:46;;;;;;;;;;;24.00;62.00;;;;;;5064435;28;43351;-84
2023/06/07 10:42:15;;;;;;;;;;;20.40;59.40;;;;;;5063959;28;43067;-85
2023/06/07 10:44:41;;;;;;;;;;;24.00;61.40;;;;;;5064656;28;42726;-84
2023/06/07 10:47:22;;;;;;;;;;;24.20;61.60;;;;;;5064725;28;42930;-84
2023/06/07 10:49:48;;;;;;;;;;;24.00;61.80;;;;;;5044857;28;44392;-86
2023/06/07 10:52:15;;;;;;;;;;;24.00;61.30;;;;;;5055073;28;42896;-85
2023/06/07 10:54:41;;;;;;;;;;;24.00;61.20;;;;;;5046519;28;43923;-84
2023/06/07 10:57:07;;;;;;;;;;;24.00;61.00;;;;;;5064515;28;42958;-85
2023/06/07 10:59:33;;;;;;;;;;;24.00;61.00;;;;;;5064596;28;42874;-84
2023/06/07 11:02:17;;;;;;;;;;;24.00;61.60;;;;;;5064608;28;43052;-85
2023/06/07 11:04:49;;;;;;;;;;;24.00;61.00;;;;;;5063614;28;42973;-84
2023/06/07 11:07:15;;;;;;;;;;;24.00;61.30;;;;;;5050929;28;42893;-84
2023/06/07 11:09:41;;;;;;;;;;;24.00;61.80;;;;;;5055455;28;43074;-83
2023/06/07 11:12:07;;;;;;;;;;;24.00;61.60;;;;;;5064320;28;43016;-85
2023/06/07 11:14:32;;;;;;;;;;;24.00;60.90;;;;;;5064216;28;43635;-84
2023/06/07 11:16:58;;;;;;;;;;;24.00;60.80;;;;;;5064034;28;42942;-84
2023/06/07 11:19:23;;;;;;;;;;;24.00;60.70;;;;;;5063440;28;43718;-84
2023/06/07 11:22:04;;;;;;;;;;;24.00;60.70;;;;;;5063495;28;43492;-86
2023/06/07 11:24:30;;;;;;;;;;;24.00;60.80;;;;;;5063503;28;43529;-84
2023/06/07 11:26:56;;;;;;;;;;;24.00;60.80;;;;;;5045394;28;43570;-84
2023/06/07 11:29:21;;;;;;;;;;;24.00;60.90;;;;;;5044960;28;43002;-83
2023/06/07 11:31:47;;;;;;;;;;;24.00;60.80;;;;;;5044781;28;43096;-87
2023/06/07 11:34:14;;;;;;;;;;;24.10;60.90;;;;;;5060946;28;43471;-84
2023/06/07 11:36:40;;;;;;;;;;;24.10;60.80;;;;;;5045127;28;43439;-84
2023/06/07 11:39:08;;;;;;;;;;;24.10;60.80;;;;;;5060791;28;43832;-84
2023/06/07 11:41:34;;;;;;;;;;;24.10;61.00;;;;;;5045299;28;43661;-79
2023/06/07 11:44:01;;;;;;;;;;;24.10;61.00;;;;;;5064162;28;43399;-80
2023/06/07 11:46:33;;;;;;;;;;;24.10;61.40;;;;;;5064410;28;43951;-80
2023/06/07 11:49:06;;;;;;;;;;;24.00;61.80;;;;;;5059113;28;43136;-80
2023/06/07 11:51:32;;;;;;;;;;;24.10;61.80;;;;;;5057855;28;42832;-82
2023/06/07 11:53:58;;;;;;;;;;;24.00;63.40;;;;;;5045433;28;44420;-83
2023/06/07 11:56:25;;;;;;;;;;;24.00;63.70;;;;;;5063771;28;43135;-82
2023/06/07 11:58:51;;;;;;;;;;;24.00;64.30;;;;;;5044040;28;42933;-84
2023/06/07 12:01:17;;;;;;;;;;;24.00;64.50;;;;;;5043433;28;43340;-84
2023/06/07 12:03:43;;;;;;;;;;;24.00;63.90;;;;;;5063862;28;43015;-83
2023/06/07 12:06:29;;;;;;;;;;;24.10;62.90;;;;;;5062803;28;43050;-85
2023/06/07 12:08:54;;;;;;;;;;;24.10;62.50;;;;;;5043512;28;45502;-85
2023/06/07 12:11:22;;;;;;;;;;;24.10;62.10;;;;;;5058813;28;43098;-84
2023/06/07 12:13:50;;;;;;;;;;;24.10;61.80;;;;;;5061549;28;42894;-84
2023/06/07 12:16:15;;;;;;;;;;;24.10;61.70;;;;;;5063672;28;43022;-83
2023/06/07 12:18:41;;;;;;;;;;;24.10;61.60;;;;;;5063084;28;43869;-84
2023/06/07 12:21:08;;;;;;;;;;;24.10;61.90;;;;;;5053002;28;43057;-84
2023/06/07 12:23:37;;;;;;;;;;;24.10;62.10;;;;;;5063086;28;43306;-85
2023/06/07 12:26:09;;;;;;;;;;;24.10;62.30;;;;;;5062888;28;42960;-82
2023/06/07 12:28:35;;;;;;;;;;;24.10;62.70;;;;;;5053164;28;43607;-83
2023/06/07 12:31:00;;;;;;;;;;;24.10;62.70;;;;;;5062408;28;43211;-84
2023/06/07 12:33:26;;;;;;;;;;;24.10;63.40;;;;;;5062565;28;43049;-84
2023/06/07 12:35:52;;;;;;;;;;;24.00;62.70;;;;;;5062002;28;42990;-84
2023/06/07 12:38:21;;;;;;;;;;;24.00;62.80;;;;;;5062610;28;42959;-83
2023/06/07 12:40:47;;;;;;;;;;;24.00;62.70;;;;;;5061579;28;43317;-83
2023/06/07 12:43:13;;;;;;;;;;;24.00;62.90;;;;;;5060891;28;43925;-84
2023/06/07 12:45:39;;;;;;;;;;;24.10;63.30;;;;;;5065381;28;43248;-84
2023/06/07 12:48:04;;;;;;;;;;;24.10;63.00;;;;;;5065335;28;43391;-84
2023/06/07 12:50:30;;;;;;;;;;;24.10;63.80;;;;;;5062531;28;43560;-84
2023/06/07 12:52:56;;;;;;;;;;;24.10;63.60;;;;;;5054349;28;43867;-83
2023/06/07 12:55:21;;;;;;;;;;;24.00;63.70;;;;;;5054163;28;42999;-84
2023/06/07 12:57:47;;;;;;;;;;;24.00;63.90;;;;;;5063947;28;43532;-84
2023/06/07 13:00:13;;;;;;;;;;;24.10;64.30;;;;;;5066000;28;43057;-84
2023/06/07 13:02:39;;;;;;;;;;;24.10;64.90;;;;;;5065870;28;43048;-84
2023/06/07 13:05:05;;;;;;;;;;;24.00;65.70;;;;;;5058123;28;42880;-83
2023/06/07 13:07:33;;;;;;;;;;;24.00;65.70;;;;;;5060233;28;43047;-84
2023/06/07 13:09:59;;;;;;;;;;;24.00;65.80;;;;;;5059134;28;42922;-85
2023/06/07 13:12:24;;;;;;;;;;;24.00;66.50;;;;;;5065114;28;43218;-84
2023/06/07 13:14:50;;;;;;;;;;;23.90;66.70;;;;;;5062468;28;42968;-84
2023/06/07 13:17:15;;;;;;;;;;;23.90;67.30;;;;;;5054143;28;43426;-86
2023/06/07 13:19:41;;;;;;;;;;;23.90;67.80;;;;;;5064628;28;43091;-85
2023/06/07 13:22:07;;;;;;;;;;;23.80;67.50;;;;;;5064783;28;43626;-85
2023/06/07 13:24:33;;;;;;;;;;;24.00;67.00;;;;;;5066423;28;42963;-85
2023/06/07 13:26:58;;;;;;;;;;;23.90;66.90;;;;;;5057822;28;43010;-85
2023/06/07 13:29:24;;;;;;;;;;;23.80;66.70;;;;;;5064113;28;42879;-84
2023/06/07 13:31:50;;;;;;;;;;;23.80;66.40;;;;;;5065950;28;43632;-84
2023/06/07 13:34:15;;;;;;;;;;;23.80;66.00;;;;;;5065504;28;43006;-85
2023/06/07 13:36:41;;;;;;;;;;;23.80;65.70;;;;;;5064855;28;43017;-84
2023/06/07 13:39:06;;;;;;;;;;;23.70;65.30;;;;;;5064421;28;42998;-85
2023/06/07 13:41:33;;;;;;;;;;;23.80;64.60;;;;;;5064136;28;44514;-84
2023/06/07 13:43:59;;;;;;;;;;;23.80;64.20;;;;;;5065665;28;43035;-86
2023/06/07 13:46:24;;;;;;;;;;;23.80;64.00;;;;;;5046985;28;42983;-85
2023/06/07 13:48:50;;;;;;;;;;;23.80;64.50;;;;;;5064899;28;43058;-84
2023/06/07 13:51:16;;;;;;;;;;;23.90;64.00;;;;;;5065005;28;43530;-85
2023/06/07 13:53:43;;;;;;;;;;;23.90;63.90;;;;;;5065205;28;42999;-85
2023/06/07 13:56:10;;;;;;;;;;;23.90;63.80;;;;;;5062435;28;44696;-85
2023/06/07 13:58:36;;;;;;;;;;;23.90;64.10;;;;;;5063141;28;42867;-85
2023/06/07 14:01:03;;;;;;;;;;;27.30;65.80;;;;;;5041574;28;43990;-85
2023/06/07 14:03:32;;;;;;;;;;;24.00;62.70;;;;;;5047475;28;43454;-85
2023/06/07 14:06:00;;;;;;;;;;;23.90;63.10;;;;;;5056713;28;42948;-85
2023/06/07 14:08:26;;;;;;;;;;;23.90;62.10;;;;;;5052121;28;42979;-85
2023/06/07 14:10:52;;;;;;;;;;;23.90;61.00;;;;;;5043238;28;45342;-83
2023/06/07 14:13:18;;;;;;;;;;;23.90;61.00;;;;;;5062154;28;42921;-83
2023/06/07 14:15:44;;;;;;;;;;;23.90;60.90;;;;;;5061074;28;43053;-84
2023/06/07 14:18:10;;;;;;;;;;;23.80;60.80;;;;;;5056800;28;43034;-83